createdAt,value
2023-01-21T00:00:46.306Z,4.20
2023-01-21T00:03:32.197Z,4.10
2023-01-21T00:06:17.821Z,4.10
2023-01-21T00:09:04.267Z,4.10
2023-01-21T00:11:49.763Z,4.20
2023-01-21T00:14:35.485Z,4.10
2023-01-21T00:17:20.930Z,4.10
2023-01-21T00:20:06.857Z,4.10
2023-01-21T00:22:53.934Z,4.10
2023-01-21T00:25:39.532Z,4.20
2023-01-21T00:28:27.356Z,4.20
2023-01-21T00:31:12.881Z,4.20
2023-01-21T00:33:58.515Z,4.20
2023-01-21T00:36:44.230Z,4.20
2023-01-21T00:39:30.066Z,4.20
2023-01-21T00:42:15.791Z,4.20
2023-01-21T00:45:01.614Z,4.20
2023-01-21T00:47:47.604Z,4.20
2023-01-21T00:50:33.569Z,4.30
2023-01-21T00:53:19.073Z,4.30
2023-01-21T00:56:05.908Z,4.30
2023-01-21T00:58:51.194Z,4.20
2023-01-21T01:01:38.575Z,4.20
2023-01-21T01:04:24.271Z,4.20
2023-01-21T01:07:10.477Z,4.20
2023-01-21T01:09:55.862Z,4.10
2023-01-21T01:12:41.262Z,4.10
2023-01-21T01:15:27.038Z,4.10
2023-01-21T01:18:12.911Z,4.10
2023-01-21T01:20:58.375Z,4.10
2023-01-21T01:23:44.520Z,4.10
2023-01-21T01:26:30.115Z,4.10
2023-01-21T01:29:15.751Z,4.10
2023-01-21T01:32:01.726Z,4.10
2023-01-21T01:34:47.385Z,4.10
2023-01-21T01:37:33.244Z,4.10
2023-01-21T01:40:19.055Z,4.10
2023-01-21T01:43:06.202Z,4.00
2023-01-21T01:45:52.646Z,4.00
2023-01-21T01:48:38.379Z,4.00
2023-01-21T01:51:28.401Z,4.00
2023-01-21T01:54:16.751Z,4.00
2023-01-21T01:57:05.907Z,4.00
2023-01-21T01:59:51.755Z,4.00
2023-01-21T02:02:39.468Z,3.90
2023-01-21T02:05:24.810Z,3.90
2023-01-21T02:08:10.913Z,3.90
2023-01-21T02:10:56.613Z,3.90
2023-01-21T02:13:44.396Z,3.90
2023-01-21T02:16:29.988Z,3.90
2023-01-21T02:19:34.880Z,3.90
2023-01-21T02:22:39.337Z,3.90
2023-01-21T02:25:25.216Z,3.80
2023-01-21T02:28:29.396Z,3.80
2023-01-21T02:31:26.407Z,3.80
2023-01-21T02:34:30.955Z,3.80
2023-01-21T02:37:35.925Z,3.80
2023-01-21T02:40:27.369Z,3.80
2023-01-21T02:43:18.408Z,3.70
2023-01-21T02:46:15.852Z,3.80
2023-01-21T02:49:07.839Z,3.80
2023-01-21T02:51:53.092Z,3.80
2023-01-21T02:54:38.876Z,3.70
2023-01-21T02:57:44.484Z,3.70
2023-01-21T03:00:51.904Z,3.70
2023-01-21T03:03:56.152Z,3.60
2023-01-21T03:06:46.116Z,3.60
2023-01-21T03:09:32.925Z,3.60
2023-01-21T03:12:37.464Z,3.50
2023-01-21T03:15:51.122Z,3.50
2023-01-21T03:18:38.982Z,3.50
2023-01-21T03:21:26.493Z,3.40
2023-01-21T03:24:12.916Z,3.50
2023-01-21T03:27:00.516Z,3.40
2023-01-21T03:29:48.208Z,3.40
2023-01-21T03:32:34.294Z,3.40
2023-01-21T03:35:22.583Z,3.40
2023-01-21T03:38:11.191Z,3.30
2023-01-21T03:41:03.141Z,3.40
2023-01-21T03:43:48.572Z,3.30
2023-01-21T03:46:33.872Z,3.30
2023-01-21T03:49:30.109Z,3.30
2023-01-21T03:52:16.525Z,3.30
2023-01-21T03:55:02.154Z,3.20
2023-01-21T03:57:48.097Z,3.30
2023-01-21T04:00:33.775Z,3.30
2023-01-21T04:03:19.084Z,3.30
2023-01-21T04:06:04.767Z,3.30
2023-01-21T04:08:50.671Z,3.30
2023-01-21T04:11:36.600Z,3.30
2023-01-21T04:14:22.212Z,3.30
2023-01-21T04:17:08.404Z,3.30
2023-01-21T04:19:54.051Z,3.30
2023-01-21T04:22:39.558Z,3.30
2023-01-21T04:25:25.201Z,3.30
2023-01-21T04:28:10.924Z,3.30
2023-01-21T04:30:56.622Z,3.30
2023-01-21T04:33:42.412Z,3.20
2023-01-21T04:36:28.122Z,3.20
2023-01-21T04:39:13.941Z,3.20
2023-01-21T04:41:59.343Z,3.30
2023-01-21T04:44:45.274Z,3.20
2023-01-21T04:47:30.981Z,3.20
2023-01-21T04:50:16.809Z,3.20
2023-01-21T04:53:02.798Z,3.30
2023-01-21T04:55:50.735Z,3.30
2023-01-21T04:58:36.334Z,3.30
2023-01-21T05:01:21.920Z,3.30
2023-01-21T05:04:07.559Z,3.30
2023-01-21T05:06:52.971Z,3.30
2023-01-21T05:09:38.739Z,3.20
2023-01-21T05:12:24.404Z,3.20
2023-01-21T05:15:10.414Z,3.20
2023-01-21T05:17:55.794Z,3.20
2023-01-21T05:20:41.193Z,3.10
2023-01-21T05:23:26.448Z,3.10
2023-01-21T05:26:12.238Z,3.10
2023-01-21T05:28:57.991Z,3.10
2023-01-21T05:31:44.156Z,3.10
2023-01-21T05:34:29.759Z,3.10
2023-01-21T05:37:15.697Z,3.00
2023-01-21T05:40:01.096Z,3.00
2023-01-21T05:42:46.996Z,3.00
2023-01-21T05:45:32.432Z,2.90
2023-01-21T05:48:18.570Z,3.00
2023-01-21T05:51:04.511Z,2.90
2023-01-21T05:53:50.036Z,2.90
2023-01-21T05:56:35.260Z,2.90
2023-01-21T05:59:20.884Z,2.90
2023-01-21T06:02:06.859Z,2.90
2023-01-21T06:04:52.779Z,2.80
2023-01-21T06:07:38.304Z,2.90
2023-01-21T06:10:24.290Z,2.80
2023-01-21T06:13:13.817Z,2.80
2023-01-21T06:15:59.191Z,2.80
2023-01-21T06:18:45.041Z,2.80
2023-01-21T06:21:30.695Z,2.80
2023-01-21T06:24:16.353Z,2.80
2023-01-21T06:27:01.996Z,2.70
2023-01-21T06:29:47.671Z,2.80
2023-01-21T06:32:33.773Z,2.80
2023-01-21T06:35:19.957Z,2.80
2023-01-21T06:38:05.607Z,2.80
2023-01-21T06:40:51.471Z,2.80
2023-01-21T06:43:37.063Z,2.80
2023-01-21T06:46:22.974Z,2.80
2023-01-21T06:49:08.387Z,2.80
2023-01-21T06:51:53.763Z,2.80
2023-01-21T06:54:39.467Z,2.80
2023-01-21T06:57:25.334Z,2.90
2023-01-21T07:00:11.902Z,2.80
2023-01-21T07:02:58.448Z,2.80
2023-01-21T07:05:44.266Z,2.80
2023-01-21T07:08:30.059Z,2.80
2023-01-21T07:11:15.817Z,2.80
2023-01-21T07:14:01.576Z,2.80
2023-01-21T07:16:47.332Z,2.80
2023-01-21T07:19:32.632Z,2.80
2023-01-21T07:22:19.823Z,2.80
2023-01-21T07:25:05.748Z,3.50
2023-01-21T07:27:51.261Z,2.90
2023-01-21T07:30:37.182Z,2.90
2023-01-21T07:33:22.943Z,2.90
2023-01-21T07:36:08.657Z,3.00
2023-01-21T07:38:54.811Z,3.00
2023-01-21T07:41:40.498Z,3.00
2023-01-21T07:44:30.215Z,3.10
2023-01-21T07:47:15.916Z,3.10
2023-01-21T07:50:05.024Z,3.20
2023-01-21T07:52:52.560Z,3.30
2023-01-21T07:55:38.490Z,3.30
2023-01-21T07:58:23.857Z,3.40
2023-01-21T08:01:09.641Z,3.40
2023-01-21T08:03:55.448Z,3.40
2023-01-21T08:06:41.546Z,3.50
2023-01-21T08:09:26.954Z,3.50
2023-01-21T08:12:12.726Z,3.60
2023-01-21T08:14:58.110Z,3.70
2023-01-21T08:17:44.802Z,3.70
2023-01-21T08:20:30.717Z,3.80
2023-01-21T08:23:16.845Z,3.90
2023-01-21T08:26:03.200Z,3.90
2023-01-21T08:28:49.055Z,4.00
2023-01-21T08:31:34.898Z,4.00
2023-01-21T08:34:20.642Z,4.00
2023-01-21T08:37:06.207Z,4.10
2023-01-21T08:39:52.232Z,4.10
2023-01-21T08:42:37.872Z,4.20
2023-01-21T08:45:23.640Z,4.30
2023-01-21T08:48:09.668Z,4.40
2023-01-21T08:50:58.099Z,4.40
2023-01-21T08:53:43.832Z,4.50
2023-01-21T08:56:29.694Z,4.50
2023-01-21T08:59:15.393Z,4.60
2023-01-21T09:02:01.022Z,4.70
2023-01-21T09:04:46.761Z,4.80
2023-01-21T09:07:32.363Z,4.90
2023-01-21T09:10:37.504Z,4.90
2023-01-21T09:13:22.867Z,5.00
2023-01-21T09:16:13.531Z,5.10
2023-01-21T09:18:59.673Z,5.20
2023-01-21T09:21:45.389Z,5.20
2023-01-21T09:24:30.951Z,5.20
2023-01-21T09:27:16.373Z,5.30
2023-01-21T09:30:02.045Z,5.40
2023-01-21T09:32:47.844Z,5.40
2023-01-21T09:35:33.334Z,5.40
2023-01-21T09:38:18.859Z,5.50
2023-01-21T09:41:23.420Z,5.50
2023-01-21T09:44:27.967Z,5.50
2023-01-21T09:47:24.537Z,5.60
2023-01-21T09:50:18.932Z,5.70
2023-01-21T09:53:20.253Z,5.60
2023-01-21T09:56:07.844Z,5.70
2023-01-21T09:59:15.032Z,5.70
2023-01-21T10:02:01.641Z,5.70
2023-01-21T10:04:50.107Z,5.80
2023-01-21T10:07:40.044Z,5.90
2023-01-21T10:10:52.094Z,5.90
2023-01-21T10:13:56.332Z,6.00
2023-01-21T10:17:08.157Z,6.10
2023-01-21T10:20:15.497Z,6.10
2023-01-21T10:23:07.867Z,6.10
2023-01-21T10:25:53.378Z,6.20
2023-01-21T10:28:41.734Z,6.20
2023-01-21T10:31:28.837Z,6.20
2023-01-21T10:34:16.231Z,6.20
2023-01-21T10:37:19.196Z,6.30
2023-01-21T10:40:04.394Z,6.40
2023-01-21T10:43:06.151Z,6.40
2023-01-21T10:46:03.247Z,6.40
2023-01-21T10:48:58.108Z,6.40
2023-01-21T10:51:56.170Z,6.30
2023-01-21T10:54:59.460Z,6.20
2023-01-21T10:57:51.351Z,6.30
2023-01-21T11:00:43.928Z,6.30
2023-01-21T11:03:41.222Z,6.30
2023-01-21T11:06:29.687Z,6.40
2023-01-21T11:09:15.509Z,6.40
2023-01-21T11:12:01.104Z,6.50
2023-01-21T11:14:53.713Z,6.50
2023-01-21T11:17:41.470Z,6.50
2023-01-21T11:20:34.914Z,6.60
2023-01-21T11:23:31.233Z,6.60
2023-01-21T11:26:20.396Z,6.60
2023-01-21T11:29:14.081Z,6.70
2023-01-21T11:32:05.817Z,6.70
2023-01-21T11:35:03.338Z,6.70
2023-01-21T11:37:49.010Z,6.60
2023-01-21T11:40:34.812Z,6.70
2023-01-21T11:43:34.575Z,6.80
2023-01-21T11:46:37.207Z,6.80
2023-01-21T11:49:24.435Z,6.90
2023-01-21T11:52:19.913Z,7.00
2023-01-21T11:55:17.197Z,7.00
2023-01-21T11:58:03.231Z,7.00
2023-01-21T12:00:50.692Z,6.90
2023-01-21T12:03:53.791Z,7.00
2023-01-21T12:06:44.954Z,6.90
2023-01-21T12:09:31.072Z,7.00
2023-01-21T12:12:26.490Z,6.90
2023-01-21T12:15:33.451Z,7.00
2023-01-21T12:18:19.124Z,7.00
2023-01-21T12:21:07.079Z,6.90
2023-01-21T12:24:16.644Z,7.00
2023-01-21T12:27:02.033Z,7.00
2023-01-21T12:30:06.812Z,7.00
2023-01-21T12:32:56.815Z,7.10
2023-01-21T12:35:46.048Z,7.00
2023-01-21T12:38:34.528Z,7.00
2023-01-21T12:41:26.254Z,7.10
2023-01-21T12:44:17.993Z,7.20
2023-01-21T12:47:12.814Z,7.20
2023-01-21T12:50:07.959Z,7.20
2023-01-21T12:53:13.712Z,7.20
2023-01-21T12:56:13.653Z,7.20
2023-01-21T12:59:05.590Z,7.20
2023-01-21T13:01:51.167Z,7.20
2023-01-21T13:04:43.486Z,7.20
2023-01-21T13:07:47.815Z,7.10
2023-01-21T13:10:38.153Z,7.10
2023-01-21T13:13:23.485Z,7.10
2023-01-21T13:16:11.166Z,7.10
2023-01-21T13:18:57.139Z,7.20
2023-01-21T13:21:50.392Z,7.20
2023-01-21T13:24:54.836Z,7.20
2023-01-21T13:28:02.100Z,7.30
2023-01-21T13:30:53.749Z,7.40
2023-01-21T13:33:45.664Z,7.40
2023-01-21T13:36:36.495Z,7.50
2023-01-21T13:39:31.266Z,7.60
2023-01-21T13:42:16.950Z,7.60
2023-01-21T13:45:14.806Z,7.60
2023-01-21T13:48:19.442Z,7.60
2023-01-21T13:51:04.890Z,7.60
2023-01-21T13:53:53.598Z,7.60
2023-01-21T13:56:46.268Z,7.60
2023-01-21T13:59:36.620Z,7.50
2023-01-21T14:02:35.639Z,7.50
2023-01-21T14:05:21.248Z,7.60
2023-01-21T14:08:30.027Z,7.60
2023-01-21T14:11:15.335Z,7.50
2023-01-21T14:14:10.434Z,7.50
2023-01-21T14:17:25.666Z,7.50
2023-01-21T14:20:26.747Z,7.40
2023-01-21T14:23:38.360Z,7.40
2023-01-21T14:26:42.762Z,7.40
2023-01-21T14:29:46.975Z,7.30
2023-01-21T14:32:40.514Z,7.30
2023-01-21T14:35:38.445Z,7.30
2023-01-21T14:38:43.582Z,7.30
2023-01-21T14:41:49.166Z,7.30
2023-01-21T14:44:45.330Z,7.30
2023-01-21T14:47:31.100Z,7.30
2023-01-21T14:50:35.620Z,7.90
2023-01-21T14:53:25.677Z,7.20
2023-01-21T14:56:17.464Z,7.20
2023-01-21T14:59:24.966Z,7.20
2023-01-21T15:02:37.473Z,7.10
2023-01-21T15:05:25.289Z,7.10
2023-01-21T15:08:20.067Z,7.10
2023-01-21T15:11:06.387Z,7.10
2023-01-21T15:14:02.395Z,7.00
2023-01-21T15:16:48.168Z,7.00
2023-01-21T15:19:34.912Z,6.90
2023-01-21T15:22:21.998Z,6.90
2023-01-21T15:25:20.891Z,6.80
2023-01-21T15:28:25.125Z,6.80
2023-01-21T15:31:23.663Z,6.80
2023-01-21T15:34:14.804Z,6.70
2023-01-21T15:37:00.369Z,6.70
2023-01-21T15:39:48.100Z,6.70
2023-01-21T15:42:43.066Z,6.60
2023-01-21T15:45:32.901Z,6.60
2023-01-21T15:48:27.495Z,6.60
2023-01-21T15:51:29.222Z,6.50
2023-01-21T15:54:14.724Z,6.50
2023-01-21T15:57:00.339Z,6.50
2023-01-21T15:59:46.142Z,6.40
2023-01-21T16:02:33.062Z,6.40
2023-01-21T16:05:19.044Z,6.30
2023-01-21T16:08:14.348Z,6.30
2023-01-21T16:11:18.771Z,6.20
2023-01-21T16:14:04.444Z,6.20
2023-01-21T16:16:50.470Z,6.20
2023-01-21T16:19:40.992Z,6.20
2023-01-21T16:22:33.544Z,6.20
2023-01-21T16:25:22.103Z,6.20
2023-01-21T16:28:07.791Z,6.10
2023-01-21T16:30:55.166Z,6.10
2023-01-21T16:33:41.902Z,6.10
2023-01-21T16:36:27.590Z,6.20
2023-01-21T16:39:13.134Z,6.10
2023-01-21T16:42:18.865Z,6.10
2023-01-21T16:45:08.723Z,6.10
2023-01-21T16:47:58.891Z,6.10
2023-01-21T16:50:47.586Z,6.10
2023-01-21T16:53:33.342Z,6.10
2023-01-21T16:56:27.177Z,6.10
2023-01-21T16:59:25.007Z,6.10
2023-01-21T17:02:16.994Z,6.10
2023-01-21T17:05:06.500Z,6.10
2023-01-21T17:07:54.348Z,6.10
2023-01-21T17:10:51.161Z,6.10
2023-01-21T17:13:39.649Z,6.10
2023-01-21T17:16:28.499Z,6.10
2023-01-21T17:19:24.697Z,6.10
2023-01-21T17:22:15.353Z,6.10
2023-01-21T17:25:12.574Z,6.10
2023-01-21T17:27:58.304Z,6.10
2023-01-21T17:30:43.942Z,6.10
2023-01-21T17:33:30.708Z,6.10
2023-01-21T17:36:29.791Z,6.10
2023-01-21T17:39:35.440Z,6.10
2023-01-21T17:42:25.326Z,6.10
2023-01-21T17:45:16.822Z,6.10
2023-01-21T17:48:14.097Z,6.10
2023-01-21T17:51:12.432Z,6.10
2023-01-21T17:54:03.619Z,6.10
2023-01-21T17:56:50.552Z,6.10
2023-01-21T17:59:40.976Z,6.20
2023-01-21T18:02:26.588Z,6.20
2023-01-21T18:05:12.409Z,6.20
2023-01-21T18:07:58.280Z,6.10
2023-01-21T18:10:44.823Z,6.00
2023-01-21T18:13:30.672Z,6.10
2023-01-21T18:16:16.686Z,6.10
2023-01-21T18:19:02.679Z,6.10
2023-01-21T18:21:47.892Z,6.20
2023-01-21T18:24:35.525Z,6.10
2023-01-21T18:27:25.727Z,6.10
2023-01-21T18:30:16.305Z,6.00
2023-01-21T18:33:01.780Z,6.00
2023-01-21T18:35:47.682Z,6.00
2023-01-21T18:38:35.787Z,6.00
2023-01-21T18:41:21.468Z,5.90
2023-01-21T18:44:07.216Z,5.90
2023-01-21T18:46:53.107Z,5.80
2023-01-21T18:49:38.374Z,5.80
2023-01-21T18:52:26.397Z,5.80
2023-01-21T18:55:13.108Z,5.80
2023-01-21T18:57:58.761Z,5.80
2023-01-21T19:00:44.416Z,5.80
2023-01-21T19:03:30.211Z,5.80
2023-01-21T19:06:16.943Z,5.80
2023-01-21T19:09:02.307Z,5.70
2023-01-21T19:11:48.446Z,5.70
2023-01-21T19:14:34.051Z,5.70
2023-01-21T19:17:26.143Z,5.60
2023-01-21T19:20:41.350Z,5.70
2023-01-21T19:23:27.059Z,5.70
2023-01-21T19:26:14.266Z,5.70
2023-01-21T19:29:00.220Z,5.70
2023-01-21T19:31:45.717Z,5.70
2023-01-21T19:34:31.605Z,5.60
2023-01-21T19:37:19.680Z,5.70
2023-01-21T19:40:12.698Z,5.60
2023-01-21T19:42:59.537Z,5.70
2023-01-21T19:45:45.194Z,5.70
2023-01-21T19:48:30.816Z,5.70
2023-01-21T19:51:16.751Z,5.60
2023-01-21T19:54:02.335Z,5.70
2023-01-21T19:56:48.447Z,5.70
2023-01-21T19:59:34.851Z,5.70
2023-01-21T20:02:20.830Z,5.80
2023-01-21T20:05:06.467Z,5.80
2023-01-21T20:07:52.407Z,5.80
2023-01-21T20:10:37.725Z,5.70
2023-01-21T20:13:23.753Z,5.80
2023-01-21T20:16:21.857Z,5.80
2023-01-21T20:19:10.811Z,5.80
2023-01-21T20:22:02.424Z,5.90
2023-01-21T20:24:48.586Z,5.90
2023-01-21T20:27:34.137Z,5.80
2023-01-21T20:30:21.449Z,5.80
2023-01-21T20:33:11.317Z,5.80
2023-01-21T20:35:57.684Z,5.90
2023-01-21T20:38:45.401Z,5.90
2023-01-21T20:41:32.039Z,5.90
2023-01-21T20:44:18.563Z,5.90
2023-01-21T20:47:04.464Z,5.90
2023-01-21T20:49:50.360Z,5.90
2023-01-21T20:52:36.591Z,5.90
2023-01-21T20:55:24.986Z,5.90
2023-01-21T20:58:13.653Z,5.90
2023-01-21T21:01:01.186Z,5.90
2023-01-21T21:03:47.044Z,5.90
2023-01-21T21:06:33.554Z,5.90
2023-01-21T21:09:21.863Z,5.90
2023-01-21T21:12:08.391Z,5.90
2023-01-21T21:14:53.946Z,5.90
2023-01-21T21:17:39.399Z,5.90
2023-01-21T21:20:25.147Z,5.90
2023-01-21T21:23:16.808Z,5.90
2023-01-21T21:26:02.163Z,5.90
2023-01-21T21:28:49.325Z,5.90
2023-01-21T21:31:34.866Z,5.90
2023-01-21T21:34:23.948Z,5.90
2023-01-21T21:37:11.977Z,5.90
2023-01-21T21:39:57.377Z,5.80
2023-01-21T21:43:03.304Z,5.80
2023-01-21T21:46:07.432Z,5.80
2023-01-21T21:48:53.094Z,5.90
2023-01-21T21:51:39.197Z,5.90
2023-01-21T21:54:25.013Z,5.90
2023-01-21T21:57:14.216Z,5.90
2023-01-21T22:00:00.197Z,6.00
2023-01-21T22:02:45.577Z,6.00
2023-01-21T22:05:35.384Z,6.00
2023-01-21T22:08:20.621Z,6.00
2023-01-21T22:11:07.645Z,6.00
2023-01-21T22:13:53.695Z,6.10
2023-01-21T22:16:40.206Z,6.10
2023-01-21T22:19:25.892Z,6.10
2023-01-21T22:22:11.688Z,6.10
2023-01-21T22:24:57.331Z,6.10
2023-01-21T22:27:42.779Z,6.10
2023-01-21T22:30:28.239Z,6.10
2023-01-21T22:33:14.296Z,6.10
2023-01-21T22:36:07.445Z,6.00
2023-01-21T22:38:53.182Z,6.10
2023-01-21T22:41:38.791Z,6.00
2023-01-21T22:44:24.366Z,6.10
2023-01-21T22:47:11.016Z,6.00
2023-01-21T22:49:57.145Z,6.10
2023-01-21T22:52:43.319Z,6.00
2023-01-21T22:55:28.631Z,6.00
2023-01-21T22:58:15.614Z,6.00
2023-01-21T23:01:01.569Z,6.00
2023-01-21T23:03:46.861Z,5.90
2023-01-21T23:06:32.652Z,6.00
2023-01-21T23:09:18.338Z,5.90
2023-01-21T23:12:03.775Z,5.90
2023-01-21T23:14:49.475Z,5.90
2023-01-21T23:17:34.693Z,5.90
2023-01-21T23:20:20.927Z,5.90
2023-01-21T23:23:07.523Z,5.80
2023-01-21T23:25:52.994Z,5.90
2023-01-21T23:28:39.053Z,5.80
2023-01-21T23:31:25.381Z,5.90
2023-01-21T23:34:12.983Z,5.80
2023-01-21T23:36:58.644Z,5.80
2023-01-21T23:39:44.003Z,5.80
2023-01-21T23:42:30.587Z,5.80
2023-01-21T23:45:16.407Z,5.70
2023-01-21T23:48:01.625Z,5.70
2023-01-21T23:50:47.416Z,5.70
2023-01-21T23:53:34.302Z,5.70
2023-01-21T23:56:20.754Z,5.70
2023-01-21T23:59:07.622Z,5.70
